Time;durP1;ratioP1;P1;durP2;ratioP2;P2;SDS_P1;SDS_P2;PMS_P1;PMS_P2;Temp;Humidity;BMP_temperature;BMP_pressure;BME280_temperature;BME280_humidity;BME280_pressure;Samples;Min_cycle;Max_cycle;Signal;HPM_P1;HPM_P2
2023/12/15 00:01:27;;;;;;;33.45;21.30;;;;;;;8.32;80.20;99271.50;6143794;23;20024;-95
2023/12/15 00:03:52;;;;;;;31.88;20.63;;;;;;;8.34;80.18;99274.72;6143814;23;20031;-94
2023/12/15 00:06:18;;;;;;;32.47;21.25;;;;;;;8.41;80.42;99299.50;6144082;23;20076;-93
2023/12/15 00:08:43;;;;;;;30.90;20.25;;;;;;;8.49;80.33;99306.28;6144160;23;20003;-94
2023/12/15 00:11:09;;;;;;;28.35;20.77;;;;;;;8.42;80.01;99300.31;6143883;23;20039;-94
2023/12/15 00:13:35;;;;;;;31.42;20.98;;;;;;;8.34;80.20;99292.72;6144915;23;19981;-95
2023/12/15 00:16:00;;;;;;;31.52;20.17;;;;;;;8.23;79.95;99289.94;6143926;23;20005;-94
2023/12/15 00:18:26;;;;;;;30.58;19.90;;;;;;;8.23;80.10;99284.56;6143822;23;20009;-93
2023/12/15 00:20:59;;;;;;;30.20;20.90;;;;;;;8.38;80.06;99316.06;6143886;23;20470;-94
2023/12/15 00:23:27;;;;;;;31.08;20.83;;;;;;;8.18;80.06;99303.31;6169156;23;20031;-94
2023/12/15 00:25:53;;;;;;;30.38;20.83;;;;;;;8.19;80.42;99312.97;6144189;23;20001;-95
2023/12/15 00:28:19;;;;;;;34.17;21.58;;;;;;;8.23;80.05;99324.81;6143470;23;19996;-94
2023/12/15 00:30:45;;;;;;;30.75;20.20;;;;;;;8.10;79.97;99307.25;6143155;23;20008;-94
2023/12/15 00:33:10;;;;;;;31.83;20.35;;;;;;;8.15;80.76;99319.91;6144591;23;20431;-93
2023/12/15 00:35:36;;;;;;;33.13;21.27;;;;;;;8.15;81.11;99311.03;6144066;23;20000;-94
2023/12/15 00:38:05;;;;;;;31.25;19.70;;;;;;;8.10;80.91;99301.09;6143650;23;20012;-94
2023/12/15 00:40:30;;;;;;;30.27;19.05;;;;;;;8.09;80.89;99300.28;6145465;23;20004;-94
2023/12/15 00:42:56;;;;;;;31.85;20.92;;;;;;;8.25;80.44;99311.13;6143461;23;20007;-94
2023/12/15 00:45:21;;;;;;;31.75;20.38;;;;;;;8.22;80.70;99315.16;6144184;23;20024;-94
2023/12/15 00:47:47;;;;;;;32.15;20.30;;;;;;;8.36;80.63;99342.34;6143386;23;20068;-94
2023/12/15 00:50:13;;;;;;;32.30;20.83;;;;;;;8.23;80.73;99330.16;6143561;23;20039;-95
2023/12/15 00:52:38;;;;;;;25.67;19.98;;;;;;;8.15;80.03;99311.84;6143698;23;20054;-92
2023/12/15 00:55:04;;;;;;;31.35;23.85;;;;;;;8.37;80.22;99337.81;6193658;23;20003;-94
2023/12/15 00:57:30;;;;;;;33.95;20.20;;;;;;;8.42;80.54;99362.03;6168448;23;19996;-94
2023/12/15 00:59:56;;;;;;;31.63;19.50;;;;;;;8.29;80.31;99341.75;6145059;23;20075;-94
2023/12/15 01:02:21;;;;;;;33.30;20.42;;;;;;;8.44;80.70;99357.22;6143817;23;20083;-93
2023/12/15 01:04:47;;;;;;;28.70;18.00;;;;;;;8.33;80.74;99344.75;6145462;23;20005;-93
2023/12/15 01:07:12;;;;;;;29.40;19.83;;;;;;;8.36;80.65;99353.09;6143416;23;20031;-93
2023/12/15 01:09:40;;;;;;;31.20;19.20;;;;;;;8.44;80.82;99376.00;6144405;23;20019;-95
2023/12/15 01:12:06;;;;;;;25.75;17.45;;;;;;;8.35;80.96;99350.69;6145493;23;20010;-94
2023/12/15 01:14:32;;;;;;;25.92;17.65;;;;;;;8.52;80.61;99364.81;6169450;23;20404;-94
2023/12/15 01:16:58;;;;;;;25.27;18.35;;;;;;;8.45;80.91;99356.97;6144221;23;20027;-94
2023/12/15 01:19:24;;;;;;;27.17;17.85;;;;;;;8.52;80.71;99372.84;6144042;23;20004;-94
2023/12/15 01:21:50;;;;;;;29.88;18.67;;;;;;;8.47;80.52;99356.72;6142653;23;20088;-94
2023/12/15 01:24:16;;;;;;;25.02;17.45;;;;;;;8.55;81.08;99363.47;6169094;23;20012;-94
2023/12/15 01:26:42;;;;;;;27.52;17.25;;;;;;;8.49;80.85;99362.66;6144248;23;20432;-95
2023/12/15 01:29:07;;;;;;;24.73;16.48;;;;;;;8.66;80.88;99375.94;6143396;23;19992;-94
2023/12/15 01:31:33;;;;;;;27.35;17.38;;;;;;;8.71;80.63;99367.91;6143740;23;20078;-94
2023/12/15 01:34:05;;;;;;;27.33;18.05;;;;;;;8.67;80.71;99383.75;6142332;23;20396;-94
2023/12/15 01:36:30;;;;;;;31.27;18.55;;;;;;;8.48;80.61;99359.13;6143636;23;20019;-95
2023/12/15 01:38:59;;;;;;;26.35;17.50;;;;;;;8.39;81.06;99349.91;6143564;23;20024;-95
2023/12/15 01:41:25;;;;;;;25.88;17.08;;;;;;;8.53;80.59;99376.34;6143859;23;20004;-94
2023/12/15 01:43:50;;;;;;;23.50;16.25;;;;;;;8.49;80.77;99358.06;6143386;23;20107;-94
2023/12/15 01:46:16;;;;;;;25.63;16.75;;;;;;;8.53;80.65;99370.97;6142278;23;20000;-93
2023/12/15 01:48:42;;;;;;;29.00;18.05;;;;;;;8.46;81.00;99361.25;6142814;23;20067;-95
2023/12/15 01:51:07;;;;;;;27.15;17.30;;;;;;;8.41;80.82;99342.44;6142864;23;20417;-94
2023/12/15 01:53:33;;;;;;;24.42;17.15;;;;;;;8.50;80.31;99358.88;6142576;23;20366;-94
2023/12/15 01:55:59;;;;;;;27.65;16.60;;;;;;;8.53;80.72;99358.38;6142906;23;20004;-94
2023/12/15 01:58:28;;;;;;;23.85;16.23;;;;;;;8.60;80.82;99368.91;6142836;23;20391;-95
2023/12/15 02:00:53;;;;;;;27.50;16.92;;;;;;;8.54;80.33;99360.00;6143331;23;20000;-93
2023/12/15 02:03:19;;;;;;;24.40;15.95;;;;;;;8.65;80.17;99374.31;6143891;23;20032;-94
2023/12/15 02:05:46;;;;;;;25.98;17.17;;;;;;;8.70;80.39;99383.22;6142766;23;20000;-93
2023/12/15 02:08:12;;;;;;;22.50;14.98;;;;;;;8.76;80.48;99380.56;6142672;23;20000;-94
2023/12/15 02:10:39;;;;;;;24.35;15.90;;;;;;;8.74;80.66;99380.03;6142567;23;20561;-94
2023/12/15 02:13:05;;;;;;;24.17;15.43;;;;;;;8.71;80.35;99378.66;6167402;23;20004;-95
2023/12/15 02:15:31;;;;;;;25.08;15.35;;;;;;;8.72;80.62;99380.28;6142816;23;19997;-94
2023/12/15 02:17:56;;;;;;;21.85;14.90;;;;;;;8.86;80.85;99396.75;6142990;23;20456;-95
2023/12/15 02:20:26;;;;;;;22.90;15.70;;;;;;;8.82;80.61;99401.00;6142348;23;20458;-94
2023/12/15 02:22:52;;;;;;;19.02;14.07;;;;;;;8.66;80.90;99387.47;6142701;23;20055;-94
2023/12/15 02:25:18;;;;;;;24.88;15.48;;;;;;;8.62;80.66;99393.63;6141855;23;20004;-94
2023/12/15 02:27:43;;;;;;;24.50;16.33;;;;;;;8.61;80.71;99414.28;6143268;23;20020;-94
2023/12/15 02:30:09;;;;;;;24.23;15.90;;;;;;;8.61;81.11;99405.41;6142478;23;20035;-94
2023/12/15 02:32:35;;;;;;;23.58;17.00;;;;;;;8.58;80.60;99412.09;6142152;23;20000;-95
2023/12/15 02:35:01;;;;;;;25.98;18.23;;;;;;;8.43;81.30;99385.94;6142693;23;20027;-95
2023/12/15 02:37:27;;;;;;;25.48;18.33;;;;;;;8.44;80.92;99384.03;6168340;23;20004;-93
2023/12/15 02:39:54;;;;;;;27.02;17.83;;;;;;;8.50;81.38;99409.88;6142920;23;20004;-94
2023/12/15 02:42:22;;;;;;;7.82;5.03;;;;;;;8.68;79.86;99424.81;6143233;23;20427;-95
2023/12/15 02:44:48;;;;;;;5.78;4.50;;;;;;;8.73;79.41;99421.34;6142673;23;20067;-96
2023/12/15 02:47:13;;;;;;;17.75;12.48;;;;;;;8.52;80.20;99405.06;6142787;23;20005;-94
2023/12/15 02:49:40;;;;;;;18.10;13.18;;;;;;;8.51;80.33;99419.56;6143175;23;20005;-94
2023/12/15 02:52:06;;;;;;;20.30;13.55;;;;;;;8.46;80.52;99409.56;6166697;23;20023;-94
2023/12/15 02:54:35;;;;;;;18.33;13.02;;;;;;;8.49;80.69;99419.78;6143163;23;20024;-94
2023/12/15 02:57:03;;;;;;;21.65;13.13;;;;;;;8.43;80.53;99420.81;6143002;23;20502;-94
2023/12/15 02:59:29;;;;;;;16.95;12.40;;;;;;;8.53;80.38;99438.91;6144269;23;20095;-94
2023/12/15 03:01:54;;;;;;;21.27;14.27;;;;;;;8.47;80.61;99438.03;6142965;23;20031;-93
2023/12/15 03:04:20;;;;;;;16.80;12.10;;;;;;;8.43;81.17;99447.63;6166906;23;20000;-94
2023/12/15 03:06:46;;;;;;;20.50;13.43;;;;;;;8.41;81.32;99449.75;6141947;23;20427;-94
2023/12/15 03:09:13;;;;;;;19.77;13.70;;;;;;;8.46;81.06;99455.16;6142376;23;20085;-93
2023/12/15 03:11:38;;;;;;;19.52;13.30;;;;;;;8.59;81.51;99478.13;6141803;23;20000;-95
2023/12/15 03:14:04;;;;;;;19.02;12.20;;;;;;;8.47;81.22;99464.06;6141860;23;20003;-94
2023/12/15 03:16:29;;;;;;;17.48;11.63;;;;;;;8.46;80.59;99457.06;6167307;23;20004;-94
2023/12/15 03:18:55;;;;;;;16.17;11.88;;;;;;;8.62;80.85;99474.13;6142004;23;20001;-95
2023/12/15 03:21:21;;;;;;;21.75;12.65;;;;;;;8.49;80.72;99451.19;6142136;23;20094;-94
2023/12/15 03:23:46;;;;;;;19.23;11.45;;;;;;;8.69;80.28;99474.72;6142186;23;20013;-94
2023/12/15 03:26:12;;;;;;;22.55;11.70;;;;;;;8.73;80.44;99485.78;6142818;23;20076;-94
2023/12/15 03:28:41;;;;;;;17.15;11.13;;;;;;;8.80;80.74;99502.47;6142399;23;20004;-95
2023/12/15 03:31:08;;;;;;;15.95;10.68;;;;;;;8.70;80.66;99489.78;6166900;23;20062;-94
2023/12/15 03:33:37;;;;;;;17.55;10.20;;;;;;;8.67;80.48;99488.41;6142310;23;20016;-94
2023/12/15 03:36:03;;;;;;;15.85;10.23;;;;;;;8.87;80.63;99521.91;6141493;23;20008;-95
2023/12/15 03:38:29;;;;;;;15.93;9.93;;;;;;;8.79;80.82;99508.94;6142120;23;20047;-94
2023/12/15 03:40:54;;;;;;;15.55;9.52;;;;;;;8.87;80.41;99521.91;6142355;23;20005;-94
2023/12/15 03:43:20;;;;;;;15.43;10.38;;;;;;;8.77;80.67;99501.13;6142143;23;20067;-95
2023/12/15 03:45:47;;;;;;;15.43;10.30;;;;;;;8.83;80.72;99505.47;6143117;23;20034;-94
2023/12/15 03:48:12;;;;;;;16.33;9.70;;;;;;;8.86;80.46;99515.72;6192651;23;20339;-92
2023/12/15 03:50:38;;;;;;;14.75;8.52;;;;;;;8.74;80.80;99507.00;6142466;23;20000;-94
2023/12/15 03:53:03;;;;;;;12.77;7.65;;;;;;;8.78;79.71;99509.97;6142091;23;20521;-94
2023/12/15 03:55:29;;;;;;;11.90;8.18;;;;;;;8.69;80.08;99491.66;6142347;23;20040;-94
2023/12/15 03:57:55;;;;;;;12.18;7.88;;;;;;;8.95;80.21;99536.75;6141761;22;20005;-93
2023/12/15 04:00:20;;;;;;;13.77;8.65;;;;;;;8.67;80.26;99509.91;6143018;23;20080;-94
2023/12/15 04:02:50;;;;;;;10.40;7.22;;;;;;;8.66;80.40;99502.09;6141716;23;20075;-95
2023/12/15 04:05:15;;;;;;;12.77;7.82;;;;;;;8.79;80.05;99531.22;6170031;23;20324;-94
2023/12/15 04:07:42;;;;;;;12.65;7.78;;;;;;;8.79;79.92;99522.34;6144705;23;20001;-93
2023/12/15 04:10:09;;;;;;;11.73;7.75;;;;;;;8.83;80.10;99532.31;6194651;23;20003;-94
2023/12/15 04:12:34;;;;;;;12.10;7.32;;;;;;;8.70;80.07;99513.94;6169224;23;20001;-93
2023/12/15 04:15:00;;;;;;;9.98;7.35;;;;;;;8.63;80.02;99506.09;6143381;23;20405;-93
2023/12/15 04:17:26;;;;;;;10.05;6.80;;;;;;;8.65;80.30;99511.19;6144791;23;20020;-94
2023/12/15 04:19:52;;;;;;;15.20;7.65;;;;;;;8.67;80.26;99523.31;6169320;23;20079;-93
2023/12/15 04:22:19;;;;;;;13.60;7.60;;;;;;;8.76;80.82;99536.25;6143494;23;20084;-93
2023/12/15 04:24:45;;;;;;;12.52;8.20;;;;;;;8.81;80.41;99555.94;6144929;23;20005;-94
2023/12/15 04:27:11;;;;;;;14.23;9.35;;;;;;;8.70;80.83;99555.00;6143508;23;20012;-94
2023/12/15 04:29:37;;;;;;;14.65;8.73;;;;;;;8.66;80.42;99543.16;6144312;23;19993;-94
2023/12/15 04:32:05;;;;;;;13.05;9.00;;;;;;;8.79;80.88;99557.25;6144873;23;20028;-94
2023/12/15 04:34:33;;;;;;;14.05;8.38;;;;;;;8.62;80.34;99543.91;6168600;23;20071;-93
2023/12/15 04:36:59;;;;;;;12.00;8.38;;;;;;;8.73;80.81;99569.81;6145786;23;20064;-95
2023/12/15 04:39:27;;;;;;;11.77;8.65;;;;;;;8.53;80.95;99546.25;6144567;23;20429;-94
2023/12/15 04:41:52;;;;;;;16.02;10.20;;;;;;;8.48;80.90;99535.44;6144977;23;20028;-94
2023/12/15 04:44:24;;;;;;;13.65;9.70;;;;;;;8.66;81.34;99570.00;6144880;23;20060;-94
2023/12/15 04:49:53;;;;;;;13.85;9.73;;;;;;;8.55;80.74;99564.75;6202654;22;20016;-93
2023/12/15 04:52:27;;;;;;;16.20;10.90;;;;;;;8.36;81.43;99548.13;6169395;22;20015;-93
2023/12/15 04:55:02;;;;;;;13.70;9.38;;;;;;;8.48;81.35;99567.63;6171562;22;20024;-96
2023/12/15 04:57:38;;;;;;;15.90;10.10;;;;;;;8.40;81.30;99549.25;6169965;22;20068;-92
2023/12/15 05:00:15;;;;;;;15.18;10.60;;;;;;;8.47;81.81;99566.03;6170061;22;20068;-93
2023/12/15 05:06:51;;;;;;;12.80;9.20;;;;;;;8.58;81.64;99586.53;6108967;23;20032;-90
2023/12/15 05:12:18;;;;;;;18.67;9.93;;;;;;;8.41;81.61;99583.91;6173900;22;20035;-92
2023/12/15 05:14:49;;;;;;;14.07;9.30;;;;;;;8.51;81.08;99596.66;6145634;23;20012;-91
2023/12/15 05:17:18;;;;;;;13.60;9.87;;;;;;;8.59;80.81;99600.75;6145265;23;20009;-95
2023/12/15 05:19:45;;;;;;;13.55;9.65;;;;;;;8.58;80.65;99599.16;6143724;23;20008;-94
2023/12/15 05:22:11;;;;;;;15.68;9.77;;;;;;;8.53;80.72;99605.28;6196740;23;20000;-95
2023/12/15 05:24:39;;;;;;;13.25;9.43;;;;;;;8.56;80.93;99617.38;6192834;23;20000;-92
2023/12/15 05:27:05;;;;;;;14.95;9.27;;;;;;;8.59;81.38;99617.69;6144795;23;20424;-95
2023/12/15 05:30:10;;;;;;;;;;;;;;;;;;;;;
2023/12/15 05:33:01;;;;;;;13.77;9.77;;;;;;;8.60;80.85;99611.25;6139832;23;20020;-94
2023/12/15 05:35:28;;;;;;;18.52;11.70;;;;;;;8.72;80.59;99629.13;6178244;23;20058;-94
2023/12/15 05:37:56;;;;;;;14.32;10.35;;;;;;;8.72;81.05;99647.91;6195651;23;20034;-94
2023/12/15 05:43:25;;;;;;;14.75;10.60;;;;;;;8.49;81.22;99622.94;6179706;23;20000;-94
2023/12/15 05:45:51;;;;;;;16.30;10.38;;;;;;;8.68;81.11;99636.88;6195217;23;20419;-94
2023/12/15 05:48:19;;;;;;;14.48;9.93;;;;;;;8.49;80.77;99625.63;6145128;23;19996;-94
2023/12/15 05:50:48;;;;;;;17.65;12.10;;;;;;;8.47;81.50;99625.88;6147394;23;20060;-93
2023/12/15 05:53:17;;;;;;;15.55;10.73;;;;;;;8.51;81.18;99636.91;6171916;23;20040;-94
2023/12/15 05:55:43;;;;;;;18.45;10.90;;;;;;;8.53;81.12;99637.47;6151291;23;20020;-95
2023/12/15 05:58:33;;;;;;;;;;;;;;;;;;;;;
2023/12/15 06:00:59;;;;;;;19.63;11.30;;;;;;;8.57;81.16;99652.03;6174792;23;20072;-95
2023/12/15 06:03:25;;;;;;;13.27;9.40;;;;;;;8.62;80.66;99680.81;6145592;23;20020;-95
2023/12/15 06:05:50;;;;;;;14.73;11.25;;;;;;;8.56;81.22;99658.44;6171135;23;20004;-96
2023/12/15 06:08:21;;;;;;;12.07;8.82;;;;;;;8.69;81.16;99674.22;6146092;23;20000;-96
2023/12/15 06:10:49;;;;;;;16.63;9.50;;;;;;;8.74;80.68;99680.69;6171737;23;20032;-94
2023/12/15 06:13:19;;;;;;;12.75;8.68;;;;;;;8.64;80.20;99667.94;6174698;23;20015;-96
2023/12/15 06:15:45;;;;;;;12.55;8.30;;;;;;;8.79;80.09;99686.13;6146066;23;19996;-94
2023/12/15 06:18:16;;;;;;;16.02;9.25;;;;;;;8.69;80.37;99686.78;6149986;23;20036;-95
2023/12/15 06:20:50;;;;;;;;;;;;;;;8.63;80.14;99707.41;6201233;23;20012;-96
2023/12/15 06:23:49;;;;;;;19.02;15.32;;;;;;;8.48;80.30;99686.50;6198200;23;20251;-96
2023/12/15 06:26:30;;;;;;;12.02;8.68;;;;;;;8.73;79.78;99712.09;6114118;23;20002;-95
2023/12/15 06:28:56;;;;;;;13.45;8.25;;;;;;;8.50;80.68;99702.38;6083464;23;20006;-95
2023/12/15 06:34:23;;;;;;;;;;;;;;;;;;;;;
2023/12/15 06:36:58;;;;;;;11.27;7.18;;;;;;;8.79;78.98;99699.53;6111122;23;20025;-96
2023/12/15 06:39:25;;;;;;;12.07;7.85;;;;;;;8.70;79.18;99713.41;6090627;23;20002;-96
2023/12/15 06:42:21;;;;;;;13.70;8.48;;;;;;;8.63;79.68;99703.88;6092691;23;20014;-96
2023/12/15 06:45:03;;;;;;;13.13;7.40;;;;;;;8.61;79.92;99717.56;6138273;23;20001;-95
2023/12/15 06:53:05;;;;;;;13.02;7.20;;;;;;;8.51;80.88;99709.38;6233727;22;20034;-96
2023/12/15 06:55:38;;;;;;;11.55;6.78;;;;;;;8.59;80.56;99719.69;6183683;23;20011;-96
2023/12/15 06:58:07;;;;;;;14.63;7.30;;;;;;;8.81;80.20;99743.88;6202796;23;20013;-95
2023/12/15 07:00:53;;;;;;;9.40;6.47;;;;;;;8.92;79.14;99752.88;6149413;23;20490;-96
2023/12/15 07:03:30;;;;;;;75.78;46.20;;;;;;;9.03;79.44;99753.84;6135509;23;20341;-93
2023/12/15 07:06:05;;;;;;;28.65;15.77;;;;;;;8.90;78.39;99736.19;6109967;23;20001;-94
2023/12/15 07:11:36;;;;;;;19.55;9.60;;;;;;;9.05;78.19;99746.34;6214081;22;20035;-95
2023/12/15 07:14:05;;;;;;;20.45;9.60;;;;;;;9.05;78.11;99752.53;6169533;23;20004;-95
2023/12/15 07:16:30;;;;;;;12.02;7.28;;;;;;;9.04;77.22;99742.03;6147166;23;20011;-93
2023/12/15 07:18:57;;;;;;;11.88;7.82;;;;;;;9.27;77.13;99770.53;6172319;23;20005;-95
2023/12/15 07:21:43;;;;;;;13.98;8.02;;;;;;;9.14;77.07;99760.97;6149764;23;19996;-95
2023/12/15 07:24:15;;;;;;;35.60;28.63;;;;;;;9.12;76.88;99755.03;6175327;23;20004;-95
2023/12/15 07:26:52;;;;;;;13.63;8.95;;;;;;;8.96;77.01;99755.88;6171831;23;20004;-95
2023/12/15 07:36:26;;;;;;;12.70;8.00;;;;;;;8.83;77.97;99754.38;6103996;23;20014;-96
2023/12/15 07:38:52;;;;;;;16.10;9.25;;;;;;;8.88;77.58;99767.84;6062986;23;20011;-93
2023/12/15 07:41:28;;;;;;;15.30;9.95;;;;;;;8.89;77.74;99780.25;6103930;23;20070;-95
2023/12/15 07:43:53;;;;;;;16.33;9.77;;;;;;;8.75;78.52;99765.53;6137601;23;20001;-93
2023/12/15 07:46:28;;;;;;;12.50;9.38;;;;;;;8.76;79.01;99769.84;6195446;23;20016;-93
2023/12/15 07:49:04;;;;;;;17.10;10.82;;;;;;;8.82;79.24;99787.63;6172263;23;20429;-93
2023/12/15 07:51:32;;;;;;;15.45;9.02;;;;;;;8.68;79.04;99796.06;6170115;23;20068;-93
2023/12/15 07:54:05;;;;;;;17.63;10.40;;;;;;;8.68;78.97;99797.94;6172838;23;20028;-95
2023/12/15 07:56:46;;;;;;;15.88;10.35;;;;;;;8.49;79.33;99783.94;6143701;23;20035;-96
2023/12/15 07:59:12;;;;;;;15.02;11.13;;;;;;;8.67;79.07;99807.03;6181547;23;20008;-94
2023/12/15 08:01:50;;;;;;;15.90;10.13;;;;;;;8.39;79.65;99789.13;6145885;23;20001;-95
2023/12/15 08:04:17;;;;;;;19.42;11.07;;;;;;;8.36;79.75;99803.00;6170358;23;20135;-94
2023/12/15 08:06:46;;;;;;;18.05;11.45;;;;;;;8.40;79.21;99796.09;6169356;23;20008;-94
2023/12/15 08:09:23;;;;;;;13.45;9.85;;;;;;;8.43;79.17;99809.88;6196042;23;20001;-93
2023/12/15 08:15:06;;;;;;;19.00;10.57;;;;;;;8.54;79.34;99823.47;6129980;23;20006;-94
2023/12/15 08:17:43;;;;;;;15.65;11.20;;;;;;;8.60;78.78;99834.03;6081783;23;20001;-95
2023/12/15 08:20:14;;;;;;;14.40;10.00;;;;;;;8.71;80.26;99853.81;6058703;23;20493;-94
2023/12/15 08:22:59;;;;;;;12.10;8.52;;;;;;;8.54;79.21;99834.22;6081173;23;20009;-94
2023/12/15 08:25:25;;;;;;;11.43;7.70;;;;;;;8.59;78.08;99832.44;6082491;23;20469;-92
2023/12/15 08:27:51;;;;;;;11.23;8.80;;;;;;;8.75;78.12;99878.28;6077708;23;20006;-93
2023/12/15 08:30:16;;;;;;;16.60;10.02;;;;;;;8.62;78.01;99844.53;6077637;23;20009;-92
2023/12/15 08:32:46;;;;;;;12.95;9.25;;;;;;;8.80;78.48;99863.09;6078492;23;20080;-92
2023/12/15 08:35:15;;;;;;;10.35;7.03;;;;;;;8.81;77.81;99853.16;6102035;23;20479;-92
2023/12/15 08:37:57;;;;;;;10.77;7.15;;;;;;;9.01;77.33;99879.53;6056001;23;20461;-91
2023/12/15 08:40:31;;;;;;;9.40;5.70;;;;;;;8.97;77.44;99900.69;6103734;23;20065;-95
2023/12/15 08:43:09;;;;;;;38.55;22.67;;;;;;;8.88;78.06;99915.56;6059126;23;20002;-95
2023/12/15 08:45:34;;;;;;;19.90;14.43;;;;;;;8.59;78.25;99898.69;6117635;23;20000;-92
2023/12/15 08:48:00;;;;;;;18.45;12.43;;;;;;;8.86;77.66;99910.44;6145110;23;20024;-95
2023/12/15 08:50:25;;;;;;;15.48;7.35;;;;;;;8.65;78.08;99881.63;6116080;23;20071;-91
2023/12/15 08:52:51;;;;;;;9.43;5.70;;;;;;;8.70;78.00;99901.31;6163582;23;19997;-89
2023/12/15 08:55:16;;;;;;;14.52;8.38;;;;;;;8.83;78.53;99912.81;6190429;23;20005;-90
2023/12/15 08:57:43;;;;;;;19.30;10.25;;;;;;;8.76;79.09;99912.97;6135540;23;20455;-88
2023/12/15 09:00:08;;;;;;;38.38;21.10;;;;;;;8.54;79.17;99885.19;6135145;23;20001;-88
2023/12/15 09:02:43;;;;;;;14.65;7.38;;;;;;;8.66;79.06;99910.91;6159523;23;20428;-89
2023/12/15 09:05:09;;;;;;;9.45;5.55;;;;;;;8.81;78.05;99914.91;6184892;23;19997;-86
2023/12/15 09:07:34;;;;;;;8.55;6.35;;;;;;;8.97;77.77;99911.41;6161522;23;19997;-90
2023/12/15 09:10:00;;;;;;;11.45;4.93;;;;;;;8.79;78.07;99890.19;6148695;23;20474;-92
2023/12/15 09:12:37;;;;;;;7.20;4.80;;;;;;;8.78;76.32;99865.22;6146854;23;20402;-93
2023/12/15 09:15:03;;;;;;;9.80;5.60;;;;;;;8.89;76.38;99872.34;6147942;23;19996;-91
2023/12/15 09:17:29;;;;;;;9.10;5.97;;;;;;;8.99;76.13;99876.28;6193587;23;20059;-93
2023/12/15 09:19:54;;;;;;;11.02;7.47;;;;;;;9.10;75.75;99881.53;6145099;23;20005;-90
2023/12/15 09:22:26;;;;;;;8.32;6.10;;;;;;;9.08;75.73;99878.28;6166951;23;20007;-93
2023/12/15 09:24:51;;;;;;;9.60;6.15;;;;;;;9.00;75.83;99878.69;6190618;23;19996;-92
2023/12/15 09:27:20;;;;;;;16.77;7.07;;;;;;;8.94;77.01;99886.91;6168629;23;20008;-91
2023/12/15 09:29:48;;;;;;;17.13;7.55;;;;;;;9.02;77.01;99899.94;6170197;23;20008;-92
2023/12/15 09:32:17;;;;;;;18.77;6.63;;;;;;;8.79;77.01;99879.44;6171574;23;20036;-94
2023/12/15 09:34:42;;;;;;;19.98;12.73;;;;;;;8.76;77.17;99882.59;6172335;23;20016;-96
2023/12/15 09:40:10;;;;;;;17.77;9.35;;;;;;;8.83;77.52;99918.97;6179758;23;20088;-93
2023/12/15 09:42:43;;;;;;;6.68;4.93;;;;;;;8.65;77.62;99901.25;6144237;23;20390;-92
2023/12/15 09:45:09;;;;;;;9.02;4.90;;;;;;;8.67;76.73;99917.09;6167585;23;20004;-92
2023/12/15 09:47:35;;;;;;;10.65;4.88;;;;;;;8.56;77.35;99901.88;6143693;23;20474;-91
2023/12/15 09:50:02;;;;;;;10.02;5.95;;;;;;;8.69;77.88;99926.56;6141299;23;19996;-92
2023/12/15 09:52:36;;;;;;;9.35;6.68;;;;;;;8.65;77.72;99900.41;6142658;23;20056;-90
2023/12/15 09:55:06;;;;;;;9.70;5.95;;;;;;;8.85;76.87;99918.75;6200042;23;19980;-91
2023/12/15 09:57:35;;;;;;;8.90;6.78;;;;;;;8.81;76.91;99906.84;6196704;23;20814;-96
2023/12/15 10:00:07;;;;;;;10.55;7.90;;;;;;;8.85;77.43;99905.31;6143655;23;20000;-91
2023/12/15 10:02:37;;;;;;;31.05;19.92;;;;;;;9.07;76.67;99951.88;6167915;23;20419;-91
2023/12/15 10:05:03;;;;;;;12.52;8.60;;;;;;;8.80;76.79;99913.28;6170649;23;20068;-91
2023/12/15 10:07:29;;;;;;;12.38;10.73;;;;;;;8.90;76.88;99934.91;6167698;23;20011;-91
2023/12/15 10:09:55;;;;;;;19.52;13.18;;;;;;;9.07;76.27;99943.81;6144787;23;20056;-93
2023/12/15 10:12:34;;;;;;;14.27;7.80;;;;;;;9.15;76.43;99953.34;6145614;23;20004;-92
2023/12/15 10:14:59;;;;;;;8.35;6.30;;;;;;;9.06;76.79;99974.41;6152799;23;19997;-94
2023/12/15 10:17:25;;;;;;;9.73;6.55;;;;;;;8.93;76.44;99955.94;6146222;23;20375;-93
2023/12/15 10:19:53;;;;;;;11.65;6.00;;;;;;;8.93;76.27;99965.88;6144935;23;20424;-95
2023/12/15 10:22:38;;;;;;;8.73;5.20;;;;;;;8.82;76.51;99965.69;6145902;23;20439;-96
2023/12/15 10:25:24;;;;;;;12.45;8.73;;;;;;;8.79;77.11;99952.75;6150974;23;20084;-95
2023/12/15 10:27:50;;;;;;;9.77;5.63;;;;;;;8.75;77.52;99973.06;6167621;23;20008;-95
2023/12/15 10:30:16;;;;;;;9.23;6.75;;;;;;;8.32;78.43;99954.78;6145646;23;20007;-93
2023/12/15 10:32:43;;;;;;;7.50;4.78;;;;;;;8.65;77.49;99976.41;6145196;23;20012;-96
